EPKT/KTW METAR and TAF weather

Enter ICAO airport designator
Station Type Date Time Source
EPKT METAR 2021/07/30 08:00 UTC NOAA

EPKT 300800Z 26006KT 230V290 CAVOK 23/13 Q1013


Station Type Date Time Source
EPKT Decoded METAR 2021/07/30 08:00 UTC NOAA

Katowice, Poland (EPKT) 50-14N 019-02E 284M
Jul 30, 2021 - 04:00 AM EDT / 2021.07.30 0800 UTC
Wind: from the W (260 degrees) at 7 MPH (6 KT) (direction variable):0
Visibility: greater than 7 mile(s):0
Temperature: 73 F (23 C)
Dew Point: 55 F (13 C)
Relative Humidity: 53%
Pressure (altimeter): 29.91 in. Hg (1013 hPa)
ob: EPKT 300800Z 26006KT 230V290 CAVOK 23/13 Q1013
cycle: 8

Station Type Date Time Source
EPKT TAF 2021/07/30 06:33 UTC NOAA

TAF EPKT 300530Z 3006/3106 25006KT CAVOK PROB30
TEMPO 3104/3106 SCT030CB

Example: see airport list